createdAt,value
2019-04-03T00:01:39.386Z,62.4
2019-04-03T00:18:24.293Z,62.4
2019-04-03T00:35:09.047Z,61.6
2019-04-03T00:51:53.875Z,61.6
2019-04-03T01:08:38.688Z,61.6
2019-04-03T01:25:23.484Z,61.6
2019-04-03T01:42:08.198Z,61.6
2019-04-03T01:58:52.802Z,61.2
2019-04-03T02:15:37.495Z,61.2
2019-04-03T02:32:24.153Z,61.2
2019-04-03T02:49:09.388Z,61.2
2019-04-03T03:05:51.209Z,61.2
2019-04-03T03:22:35.774Z,60.8
2019-04-03T03:39:20.207Z,60.8
2019-04-03T03:56:04.663Z,60.8
2019-04-03T04:12:51.514Z,60.4
2019-04-03T04:29:33.520Z,60.4
2019-04-03T04:46:17.933Z,60.4
2019-04-03T05:03:02.253Z,60.4
2019-04-03T05:19:46.799Z,60.0
2019-04-03T05:36:30.834Z,60.0
2019-04-03T05:53:15.046Z,60.0
2019-04-03T06:09:59.552Z,60.0
2019-04-03T06:26:44.570Z,59.6
2019-04-03T06:43:29.957Z,59.6
2019-04-03T07:00:11.752Z,60.4
2019-04-03T07:16:56.133Z,60.8
2019-04-03T07:33:40.486Z,61.6
2019-04-03T07:50:24.991Z,61.6
2019-04-03T08:07:09.339Z,61.6
2019-04-03T08:23:53.583Z,61.6
2019-04-03T08:40:38.042Z,61.6
2019-04-03T08:57:22.316Z,61.2
2019-04-03T09:14:06.796Z,61.2
2019-04-03T09:30:53.893Z,61.2
2019-04-03T09:47:35.752Z,60.4
2019-04-03T10:04:21.276Z,60.8
2019-04-03T10:21:03.835Z,60.8
2019-04-03T10:37:48.754Z,60.8
2019-04-03T10:54:33.673Z,61.2
2019-04-03T11:11:19.193Z,61.2
2019-04-03T11:28:05.610Z,60.8
2019-04-03T11:44:49.209Z,60.8
2019-04-03T12:01:34.380Z,60.8
2019-04-03T12:18:19.239Z,60.4
2019-04-03T12:35:04.390Z,60.4
2019-04-03T12:51:49.836Z,60.0
2019-04-03T13:08:35.166Z,60.0
2019-04-03T13:25:21.535Z,60.4
2019-04-03T13:42:05.467Z,60.0
2019-04-03T13:58:53.226Z,60.0
2019-04-03T14:15:35.989Z,60.0
2019-04-03T14:32:22.112Z,60.8
2019-04-03T14:49:06.816Z,60.4
2019-04-03T15:05:52.519Z,60.8
2019-04-03T15:22:37.400Z,60.8
2019-04-03T15:39:22.808Z,60.8
2019-04-03T15:56:11.467Z,60.8
2019-04-03T16:12:53.203Z,61.2
2019-04-03T16:29:48.147Z,62.0
2019-04-03T17:36:53.221Z,63.2
